Archival Weather

Aeroparque Jorge Newbery

Aeroparque Jorge Newbery, Argentina (SABE)

Report from: Saturday, May 14, 2022 12:00 PM -03
Current time: Sunday, June 26, 2022 2:50 PM -03

Current weather
Weather history
Weather forecast

Temperature18.0°C (64.4°F)
Dew point10.0°C (50.0°F)
Winds 4 kts (2.1 m/s, 4.6 mph) Vrb
Winds variableWinds variable
Visibility6.2 mi. (10 km)
Clouds Few clouds 2,500 ft. (762 m)
Altimeter30.09 in.Hg (1019 mB)
Relative humidity60 %
Density altitude333 ft. (102 m)
Remarks Corrected report
No significant changes expected in the next two hours
Flight conditions Visual Meteorological Conditions
Raw dataCOR SABE 141500Z VRB04KT 9999 FEW025 18/10 Q1019 NOSIG
An error has occurred. This application may no longer respond until reloaded. Reload 🗙